sensor_id;sensor_type;location;lat;lon;timestamp;temperature;humidity
6654;DHT22;3363;50.942;7.034;2023-07-22T00:02:12;19.30;46.00
6654;DHT22;3363;50.942;7.034;2023-07-22T00:04:39;19.30;46.10
6654;DHT22;3363;50.942;7.034;2023-07-22T00:07:05;19.30;46.00
6654;DHT22;3363;50.942;7.034;2023-07-22T00:09:32;19.30;46.10
6654;DHT22;3363;50.942;7.034;2023-07-22T00:11:59;19.30;46.10
6654;DHT22;3363;50.942;7.034;2023-07-22T00:14:26;19.30;46.90
6654;DHT22;3363;50.942;7.034;2023-07-22T00:16:53;19.20;46.10
6654;DHT22;3363;50.942;7.034;2023-07-22T00:19:21;19.20;46.10
6654;DHT22;3363;50.942;7.034;2023-07-22T00:21:48;19.20;46.10
6654;DHT22;3363;50.942;7.034;2023-07-22T00:24:17;19.20;46.30
6654;DHT22;3363;50.942;7.034;2023-07-22T00:26:44;19.20;46.30
6654;DHT22;3363;50.942;7.034;2023-07-22T00:29:10;19.10;46.30
6654;DHT22;3363;50.942;7.034;2023-07-22T00:31:37;19.10;46.20
6654;DHT22;3363;50.942;7.034;2023-07-22T00:34:04;19.10;46.50
6654;DHT22;3363;50.942;7.034;2023-07-22T00:36:32;19.10;46.60
6654;DHT22;3363;50.942;7.034;2023-07-22T00:38:58;19.10;46.60
6654;DHT22;3363;50.942;7.034;2023-07-22T00:41:25;19.10;46.70
6654;DHT22;3363;50.942;7.034;2023-07-22T00:43:52;19.10;46.80
6654;DHT22;3363;50.942;7.034;2023-07-22T00:46:18;19.00;46.80
6654;DHT22;3363;50.942;7.034;2023-07-22T00:48:45;19.00;46.90
6654;DHT22;3363;50.942;7.034;2023-07-22T00:51:12;19.00;46.90
6654;DHT22;3363;50.942;7.034;2023-07-22T00:53:40;19.00;47.10
6654;DHT22;3363;50.942;7.034;2023-07-22T00:56:07;18.90;47.80
6654;DHT22;3363;50.942;7.034;2023-07-22T00:58:33;19.00;47.20
6654;DHT22;3363;50.942;7.034;2023-07-22T01:01:00;19.00;47.40
6654;DHT22;3363;50.942;7.034;2023-07-22T01:03:27;18.90;47.30
6654;DHT22;3363;50.942;7.034;2023-07-22T01:05:54;18.90;47.40
6654;DHT22;3363;50.942;7.034;2023-07-22T01:08:22;18.90;47.50
6654;DHT22;3363;50.942;7.034;2023-07-22T01:10:50;18.90;47.60
6654;DHT22;3363;50.942;7.034;2023-07-22T01:13:17;18.90;47.70
6654;DHT22;3363;50.942;7.034;2023-07-22T01:15:44;18.90;47.80
6654;DHT22;3363;50.942;7.034;2023-07-22T01:18:12;18.90;47.80
6654;DHT22;3363;50.942;7.034;2023-07-22T01:20:38;18.80;47.90
6654;DHT22;3363;50.942;7.034;2023-07-22T01:23:07;18.80;47.90
6654;DHT22;3363;50.942;7.034;2023-07-22T01:25:33;18.80;48.00
6654;DHT22;3363;50.942;7.034;2023-07-22T01:28:00;18.80;48.10
6654;DHT22;3363;50.942;7.034;2023-07-22T01:30:27;18.80;48.20
6654;DHT22;3363;50.942;7.034;2023-07-22T01:32:53;18.80;48.40
6654;DHT22;3363;50.942;7.034;2023-07-22T01:35:20;18.70;48.30
6654;DHT22;3363;50.942;7.034;2023-07-22T01:37:47;18.70;48.40
6654;DHT22;3363;50.942;7.034;2023-07-22T01:40:15;18.70;48.50
6654;DHT22;3363;50.942;7.034;2023-07-22T01:42:43;18.70;48.70
6654;DHT22;3363;50.942;7.034;2023-07-22T01:45:10;18.70;48.70
6654;DHT22;3363;50.942;7.034;2023-07-22T01:47:37;18.70;48.70
6654;DHT22;3363;50.942;7.034;2023-07-22T01:50:04;18.70;48.90
6654;DHT22;3363;50.942;7.034;2023-07-22T01:52:32;18.70;49.00
6654;DHT22;3363;50.942;7.034;2023-07-22T01:54:58;18.70;49.00
6654;DHT22;3363;50.942;7.034;2023-07-22T01:57:26;18.70;49.10
6654;DHT22;3363;50.942;7.034;2023-07-22T01:59:53;18.60;49.00
6654;DHT22;3363;50.942;7.034;2023-07-22T02:02:20;18.70;49.20
6654;DHT22;3363;50.942;7.034;2023-07-22T02:07:50;18.60;49.30
6654;DHT22;3363;50.942;7.034;2023-07-22T02:10:17;18.60;49.40
6654;DHT22;3363;50.942;7.034;2023-07-22T02:12:45;18.60;49.50
6654;DHT22;3363;50.942;7.034;2023-07-22T02:15:12;18.60;49.60
6654;DHT22;3363;50.942;7.034;2023-07-22T02:17:38;18.60;49.80
6654;DHT22;3363;50.942;7.034;2023-07-22T02:20:06;18.60;50.00
6654;DHT22;3363;50.942;7.034;2023-07-22T02:22:34;18.60;50.00
6654;DHT22;3363;50.942;7.034;2023-07-22T02:25:01;18.60;50.20
6654;DHT22;3363;50.942;7.034;2023-07-22T02:27:28;18.60;50.30
6654;DHT22;3363;50.942;7.034;2023-07-22T02:29:56;18.60;50.40
6654;DHT22;3363;50.942;7.034;2023-07-22T02:32:23;18.60;50.60
6654;DHT22;3363;50.942;7.034;2023-07-22T02:34:50;18.50;50.50
6654;DHT22;3363;50.942;7.034;2023-07-22T02:37:16;18.50;50.50
6654;DHT22;3363;50.942;7.034;2023-07-22T02:39:43;18.50;50.50
6654;DHT22;3363;50.942;7.034;2023-07-22T02:42:10;18.50;50.50
6654;DHT22;3363;50.942;7.034;2023-07-22T02:44:36;18.50;50.60
6654;DHT22;3363;50.942;7.034;2023-07-22T02:47:04;18.50;50.90
6654;DHT22;3363;50.942;7.034;2023-07-22T02:49:31;18.40;51.60
6654;DHT22;3363;50.942;7.034;2023-07-22T02:51:58;18.40;51.00
6654;DHT22;3363;50.942;7.034;2023-07-22T02:54:25;18.40;51.00
6654;DHT22;3363;50.942;7.034;2023-07-22T02:56:51;18.40;51.00
6654;DHT22;3363;50.942;7.034;2023-07-22T02:59:18;18.40;51.20
6654;DHT22;3363;50.942;7.034;2023-07-22T03:01:45;18.40;51.20
6654;DHT22;3363;50.942;7.034;2023-07-22T03:04:13;18.40;51.20
6654;DHT22;3363;50.942;7.034;2023-07-22T03:06:40;18.40;51.20
6654;DHT22;3363;50.942;7.034;2023-07-22T03:09:07;18.40;51.40
6654;DHT22;3363;50.942;7.034;2023-07-22T03:11:34;18.40;51.60
6654;DHT22;3363;50.942;7.034;2023-07-22T03:14:01;18.30;51.60
6654;DHT22;3363;50.942;7.034;2023-07-22T03:16:28;18.30;51.70
6654;DHT22;3363;50.942;7.034;2023-07-22T03:18:54;18.30;51.80
6654;DHT22;3363;50.942;7.034;2023-07-22T03:21:22;18.30;51.90
6654;DHT22;3363;50.942;7.034;2023-07-22T03:23:49;18.30;52.00
6654;DHT22;3363;50.942;7.034;2023-07-22T03:28:53;18.30;52.40
6654;DHT22;3363;50.942;7.034;2023-07-22T03:31:20;18.30;52.30
6654;DHT22;3363;50.942;7.034;2023-07-22T03:33:47;18.30;52.60
6654;DHT22;3363;50.942;7.034;2023-07-22T03:36:15;18.30;52.60
6654;DHT22;3363;50.942;7.034;2023-07-22T03:38:43;18.30;52.80
6654;DHT22;3363;50.942;7.034;2023-07-22T03:41:09;18.20;52.90
6654;DHT22;3363;50.942;7.034;2023-07-22T03:43:36;18.20;53.20
6654;DHT22;3363;50.942;7.034;2023-07-22T03:46:03;18.20;53.10
6654;DHT22;3363;50.942;7.034;2023-07-22T03:48:29;18.20;53.40
6654;DHT22;3363;50.942;7.034;2023-07-22T03:50:56;18.20;53.40
6654;DHT22;3363;50.942;7.034;2023-07-22T03:53:23;18.20;53.50
6654;DHT22;3363;50.942;7.034;2023-07-22T03:55:51;18.20;53.70
6654;DHT22;3363;50.942;7.034;2023-07-22T03:58:17;18.20;53.80
6654;DHT22;3363;50.942;7.034;2023-07-22T04:00:47;18.20;53.80
6654;DHT22;3363;50.942;7.034;2023-07-22T04:03:14;18.20;53.90
6654;DHT22;3363;50.942;7.034;2023-07-22T04:05:41;18.20;54.90
6654;DHT22;3363;50.942;7.034;2023-07-22T04:08:08;18.20;54.20
6654;DHT22;3363;50.942;7.034;2023-07-22T04:10:34;18.20;54.10
6654;DHT22;3363;50.942;7.034;2023-07-22T04:13:02;18.20;54.20
6654;DHT22;3363;50.942;7.034;2023-07-22T04:15:29;18.10;54.30
6654;DHT22;3363;50.942;7.034;2023-07-22T04:17:56;18.10;54.40
6654;DHT22;3363;50.942;7.034;2023-07-22T04:20:23;18.10;54.60
6654;DHT22;3363;50.942;7.034;2023-07-22T04:22:50;18.10;54.60
6654;DHT22;3363;50.942;7.034;2023-07-22T04:25:17;18.10;54.70
6654;DHT22;3363;50.942;7.034;2023-07-22T04:27:43;18.10;54.90
6654;DHT22;3363;50.942;7.034;2023-07-22T04:30:11;18.10;54.50
6654;DHT22;3363;50.942;7.034;2023-07-22T04:32:45;18.10;54.70
6654;DHT22;3363;50.942;7.034;2023-07-22T04:35:12;18.10;54.50
6654;DHT22;3363;50.942;7.034;2023-07-22T04:37:38;18.10;54.50
6654;DHT22;3363;50.942;7.034;2023-07-22T04:40:06;18.10;54.50
6654;DHT22;3363;50.942;7.034;2023-07-22T04:42:37;18.10;54.50
6654;DHT22;3363;50.942;7.034;2023-07-22T04:45:03;18.10;54.60
6654;DHT22;3363;50.942;7.034;2023-07-22T04:47:33;18.10;54.70
6654;DHT22;3363;50.942;7.034;2023-07-22T04:49:59;18.10;54.40
6654;DHT22;3363;50.942;7.034;2023-07-22T04:52:26;18.10;54.50
6654;DHT22;3363;50.942;7.034;2023-07-22T04:54:53;17.80;56.00
6654;DHT22;3363;50.942;7.034;2023-07-22T04:57:20;17.50;57.50
6654;DHT22;3363;50.942;7.034;2023-07-22T04:59:47;16.90;61.20
6654;DHT22;3363;50.942;7.034;2023-07-22T05:02:14;16.60;64.00
6654;DHT22;3363;50.942;7.034;2023-07-22T05:04:42;16.50;64.90
6654;DHT22;3363;50.942;7.034;2023-07-22T05:07:08;16.50;66.20
6654;DHT22;3363;50.942;7.034;2023-07-22T05:09:36;16.50;66.00
6654;DHT22;3363;50.942;7.034;2023-07-22T05:12:03;16.80;64.60
6654;DHT22;3363;50.942;7.034;2023-07-22T05:14:30;17.10;63.20
6654;DHT22;3363;50.942;7.034;2023-07-22T05:16:56;17.50;61.30
6654;DHT22;3363;50.942;7.034;2023-07-22T05:19:23;17.60;60.60
6654;DHT22;3363;50.942;7.034;2023-07-22T05:21:52;18.70;56.70
6654;DHT22;3363;50.942;7.034;2023-07-22T05:24:19;18.90;54.30
6654;DHT22;3363;50.942;7.034;2023-07-22T05:26:46;18.60;54.90
6654;DHT22;3363;50.942;7.034;2023-07-22T05:29:13;18.00;56.40
6654;DHT22;3363;50.942;7.034;2023-07-22T05:31:41;17.90;57.20
6654;DHT22;3363;50.942;7.034;2023-07-22T05:34:08;17.80;57.50
6654;DHT22;3363;50.942;7.034;2023-07-22T05:36:34;17.80;57.30
6654;DHT22;3363;50.942;7.034;2023-07-22T05:39:02;17.80;56.90
6654;DHT22;3363;50.942;7.034;2023-07-22T05:41:29;17.80;56.90
6654;DHT22;3363;50.942;7.034;2023-07-22T05:43:56;17.70;57.10
6654;DHT22;3363;50.942;7.034;2023-07-22T05:46:22;17.80;57.30
6654;DHT22;3363;50.942;7.034;2023-07-22T05:48:49;17.80;57.10
6654;DHT22;3363;50.942;7.034;2023-07-22T05:51:16;17.80;57.20
6654;DHT22;3363;50.942;7.034;2023-07-22T05:53:43;17.80;56.90
6654;DHT22;3363;50.942;7.034;2023-07-22T05:56:11;17.90;56.60
6654;DHT22;3363;50.942;7.034;2023-07-22T05:58:38;17.80;57.20
6654;DHT22;3363;50.942;7.034;2023-07-22T06:01:05;17.90;57.40
6654;DHT22;3363;50.942;7.034;2023-07-22T06:03:31;17.70;59.20
6654;DHT22;3363;50.942;7.034;2023-07-22T06:05:58;17.80;57.70
6654;DHT22;3363;50.942;7.034;2023-07-22T06:08:25;17.80;57.20
6654;DHT22;3363;50.942;7.034;2023-07-22T06:10:54;17.80;57.70
6654;DHT22;3363;50.942;7.034;2023-07-22T06:13:22;17.80;58.00
6654;DHT22;3363;50.942;7.034;2023-07-22T06:15:49;17.90;56.80
6654;DHT22;3363;50.942;7.034;2023-07-22T06:18:15;18.00;56.20
6654;DHT22;3363;50.942;7.034;2023-07-22T06:20:42;18.00;56.00
6654;DHT22;3363;50.942;7.034;2023-07-22T06:23:09;18.10;55.70
6654;DHT22;3363;50.942;7.034;2023-07-22T06:25:35;18.10;55.80
6654;DHT22;3363;50.942;7.034;2023-07-22T06:28:02;18.10;55.70
6654;DHT22;3363;50.942;7.034;2023-07-22T06:30:30;18.10;55.70
6654;DHT22;3363;50.942;7.034;2023-07-22T06:32:57;18.20;55.80
6654;DHT22;3363;50.942;7.034;2023-07-22T06:35:24;18.20;55.20
6654;DHT22;3363;50.942;7.034;2023-07-22T06:37:50;18.20;54.80
6654;DHT22;3363;50.942;7.034;2023-07-22T06:40:17;18.30;54.50
6654;DHT22;3363;50.942;7.034;2023-07-22T06:42:44;18.30;54.30
6654;DHT22;3363;50.942;7.034;2023-07-22T06:45:10;18.30;55.50
6654;DHT22;3363;50.942;7.034;2023-07-22T06:47:39;18.20;54.70
6654;DHT22;3363;50.942;7.034;2023-07-22T06:50:06;18.30;54.50
6654;DHT22;3363;50.942;7.034;2023-07-22T06:52:33;18.40;54.10
6654;DHT22;3363;50.942;7.034;2023-07-22T06:54:59;18.30;55.60
6654;DHT22;3363;50.942;7.034;2023-07-22T06:57:26;18.30;54.80
6654;DHT22;3363;50.942;7.034;2023-07-22T06:59:53;18.30;54.80
6654;DHT22;3363;50.942;7.034;2023-07-22T07:02:20;18.10;55.70
6654;DHT22;3363;50.942;7.034;2023-07-22T07:04:48;18.20;55.30
6654;DHT22;3363;50.942;7.034;2023-07-22T07:07:15;18.20;55.20
6654;DHT22;3363;50.942;7.034;2023-07-22T07:09:42;18.20;55.00
6654;DHT22;3363;50.942;7.034;2023-07-22T07:12:09;18.10;55.60
6654;DHT22;3363;50.942;7.034;2023-07-22T07:14:36;18.10;55.20
6654;DHT22;3363;50.942;7.034;2023-07-22T07:17:03;18.30;55.20
6654;DHT22;3363;50.942;7.034;2023-07-22T07:19:29;18.30;54.70
6654;DHT22;3363;50.942;7.034;2023-07-22T07:21:58;18.40;54.20
6654;DHT22;3363;50.942;7.034;2023-07-22T07:24:24;18.40;54.50
6654;DHT22;3363;50.942;7.034;2023-07-22T07:26:52;18.40;55.20
6654;DHT22;3363;50.942;7.034;2023-07-22T07:29:19;18.40;54.70
6654;DHT22;3363;50.942;7.034;2023-07-22T07:31:46;18.40;54.60
6654;DHT22;3363;50.942;7.034;2023-07-22T07:34:12;18.30;55.90
6654;DHT22;3363;50.942;7.034;2023-07-22T07:36:39;18.30;54.30
6654;DHT22;3363;50.942;7.034;2023-07-22T07:39:07;18.20;54.90
6654;DHT22;3363;50.942;7.034;2023-07-22T07:41:34;18.10;55.70
6654;DHT22;3363;50.942;7.034;2023-07-22T07:44:00;18.20;55.80
6654;DHT22;3363;50.942;7.034;2023-07-22T07:46:27;18.20;55.40
6654;DHT22;3363;50.942;7.034;2023-07-22T07:48:55;18.20;55.20
6654;DHT22;3363;50.942;7.034;2023-07-22T07:51:22;18.30;54.80
6654;DHT22;3363;50.942;7.034;2023-07-22T07:53:51;18.30;56.40
6654;DHT22;3363;50.942;7.034;2023-07-22T07:56:20;18.20;55.80
6654;DHT22;3363;50.942;7.034;2023-07-22T07:58:47;18.40;54.60
6654;DHT22;3363;50.942;7.034;2023-07-22T08:01:14;18.50;53.30
6654;DHT22;3363;50.942;7.034;2023-07-22T08:03:41;18.60;53.10
6654;DHT22;3363;50.942;7.034;2023-07-22T08:06:08;18.70;53.30
6654;DHT22;3363;50.942;7.034;2023-07-22T08:08:35;18.70;52.60
6654;DHT22;3363;50.942;7.034;2023-07-22T08:11:02;18.80;51.70
6654;DHT22;3363;50.942;7.034;2023-07-22T08:13:31;18.80;51.00
6654;DHT22;3363;50.942;7.034;2023-07-22T08:15:59;18.70;51.50
6654;DHT22;3363;50.942;7.034;2023-07-22T08:18:26;18.80;51.40
6654;DHT22;3363;50.942;7.034;2023-07-22T08:20:52;18.90;51.00
6654;DHT22;3363;50.942;7.034;2023-07-22T08:23:19;18.90;50.90
6654;DHT22;3363;50.942;7.034;2023-07-22T08:25:46;19.00;51.50
6654;DHT22;3363;50.942;7.034;2023-07-22T08:28:13;19.10;52.90
6654;DHT22;3363;50.942;7.034;2023-07-22T08:30:41;19.00;50.10
6654;DHT22;3363;50.942;7.034;2023-07-22T08:33:08;19.10;48.90
6654;DHT22;3363;50.942;7.034;2023-07-22T08:35:34;19.10;49.80
6654;DHT22;3363;50.942;7.034;2023-07-22T08:38:01;19.00;49.10
6654;DHT22;3363;50.942;7.034;2023-07-22T08:40:32;19.10;49.00
6654;DHT22;3363;50.942;7.034;2023-07-22T08:42:59;19.10;48.70
6654;DHT22;3363;50.942;7.034;2023-07-22T08:45:26;19.20;47.00
6654;DHT22;3363;50.942;7.034;2023-07-22T08:47:57;19.20;47.50
6654;DHT22;3363;50.942;7.034;2023-07-22T08:50:26;19.20;47.20
6654;DHT22;3363;50.942;7.034;2023-07-22T08:52:55;19.20;47.50
6654;DHT22;3363;50.942;7.034;2023-07-22T08:55:23;19.30;47.60
6654;DHT22;3363;50.942;7.034;2023-07-22T08:57:50;19.50;45.10
6654;DHT22;3363;50.942;7.034;2023-07-22T09:00:17;19.60;44.90
6654;DHT22;3363;50.942;7.034;2023-07-22T09:02:44;19.60;43.30
6654;DHT22;3363;50.942;7.034;2023-07-22T09:05:13;19.60;44.70
6654;DHT22;3363;50.942;7.034;2023-07-22T09:07:41;19.60;44.00
6654;DHT22;3363;50.942;7.034;2023-07-22T09:10:08;19.60;43.70
6654;DHT22;3363;50.942;7.034;2023-07-22T09:12:35;19.60;43.20
6654;DHT22;3363;50.942;7.034;2023-07-22T09:15:06;19.70;44.10
6654;DHT22;3363;50.942;7.034;2023-07-22T09:17:34;19.60;43.70
6654;DHT22;3363;50.942;7.034;2023-07-22T09:20:01;19.70;42.90
6654;DHT22;3363;50.942;7.034;2023-07-22T09:22:31;19.60;42.80
6654;DHT22;3363;50.942;7.034;2023-07-22T09:25:11;19.60;42.20
6654;DHT22;3363;50.942;7.034;2023-07-22T09:27:39;19.70;42.50
6654;DHT22;3363;50.942;7.034;2023-07-22T09:30:17;19.80;41.90
6654;DHT22;3363;50.942;7.034;2023-07-22T09:32:46;19.80;42.50
6654;DHT22;3363;50.942;7.034;2023-07-22T09:35:13;19.80;44.00
6654;DHT22;3363;50.942;7.034;2023-07-22T09:37:41;19.80;43.30
6654;DHT22;3363;50.942;7.034;2023-07-22T09:40:14;19.80;41.00
6654;DHT22;3363;50.942;7.034;2023-07-22T09:42:42;19.80;43.30
6654;DHT22;3363;50.942;7.034;2023-07-22T09:45:09;19.90;40.20
6654;DHT22;3363;50.942;7.034;2023-07-22T09:47:39;20.10;41.20
6654;DHT22;3363;50.942;7.034;2023-07-22T09:50:06;20.40;40.60
6654;DHT22;3363;50.942;7.034;2023-07-22T09:52:33;20.40;39.40
6654;DHT22;3363;50.942;7.034;2023-07-22T09:55:01;20.50;40.10
6654;DHT22;3363;50.942;7.034;2023-07-22T09:57:27;20.30;40.30
6654;DHT22;3363;50.942;7.034;2023-07-22T09:59:54;20.20;38.90
6654;DHT22;3363;50.942;7.034;2023-07-22T10:02:21;20.10;36.80
6654;DHT22;3363;50.942;7.034;2023-07-22T10:04:48;20.20;37.10
6654;DHT22;3363;50.942;7.034;2023-07-22T10:07:17;20.40;37.20
6654;DHT22;3363;50.942;7.034;2023-07-22T10:09:44;20.50;36.00
6654;DHT22;3363;50.942;7.034;2023-07-22T10:12:13;20.70;37.50
6654;DHT22;3363;50.942;7.034;2023-07-22T10:14:40;20.90;36.00
6654;DHT22;3363;50.942;7.034;2023-07-22T10:17:08;20.90;35.90
6654;DHT22;3363;50.942;7.034;2023-07-22T10:19:36;21.10;36.50
6654;DHT22;3363;50.942;7.034;2023-07-22T10:22:03;21.10;35.10
6654;DHT22;3363;50.942;7.034;2023-07-22T10:24:30;21.10;34.20
6654;DHT22;3363;50.942;7.034;2023-07-22T10:26:57;21.30;35.70
6654;DHT22;3363;50.942;7.034;2023-07-22T10:29:25;21.40;36.50
6654;DHT22;3363;50.942;7.034;2023-07-22T10:31:53;21.40;33.60
6654;DHT22;3363;50.942;7.034;2023-07-22T10:34:20;21.70;33.30
6654;DHT22;3363;50.942;7.034;2023-07-22T10:36:47;21.70;33.50
6654;DHT22;3363;50.942;7.034;2023-07-22T10:39:24;21.50;31.30
6654;DHT22;3363;50.942;7.034;2023-07-22T10:41:51;21.40;29.80
6654;DHT22;3363;50.942;7.034;2023-07-22T10:44:26;21.50;30.40
6654;DHT22;3363;50.942;7.034;2023-07-22T10:46:56;21.50;33.30
6654;DHT22;3363;50.942;7.034;2023-07-22T10:49:23;21.40;29.80
6654;DHT22;3363;50.942;7.034;2023-07-22T10:51:50;21.50;29.40
6654;DHT22;3363;50.942;7.034;2023-07-22T10:54:31;21.60;29.50
6654;DHT22;3363;50.942;7.034;2023-07-22T10:57:00;21.80;30.20
6654;DHT22;3363;50.942;7.034;2023-07-22T10:59:31;21.90;30.20
6654;DHT22;3363;50.942;7.034;2023-07-22T11:01:58;22.00;29.80
6654;DHT22;3363;50.942;7.034;2023-07-22T11:04:25;22.10;29.50
6654;DHT22;3363;50.942;7.034;2023-07-22T11:06:57;22.30;29.80
6654;DHT22;3363;50.942;7.034;2023-07-22T11:09:34;22.30;30.10
6654;DHT22;3363;50.942;7.034;2023-07-22T11:12:01;22.10;30.00
6654;DHT22;3363;50.942;7.034;2023-07-22T11:14:28;22.10;30.30
6654;DHT22;3363;50.942;7.034;2023-07-22T11:16:57;22.00;30.70
6654;DHT22;3363;50.942;7.034;2023-07-22T11:19:24;22.20;30.40
6654;DHT22;3363;50.942;7.034;2023-07-22T11:21:52;22.30;28.40
6654;DHT22;3363;50.942;7.034;2023-07-22T11:24:19;22.40;28.50
6654;DHT22;3363;50.942;7.034;2023-07-22T11:26:46;22.50;30.20
6654;DHT22;3363;50.942;7.034;2023-07-22T11:29:13;22.50;29.10
6654;DHT22;3363;50.942;7.034;2023-07-22T11:31:40;22.50;28.00
6654;DHT22;3363;50.942;7.034;2023-07-22T11:34:09;22.30;28.30
6654;DHT22;3363;50.942;7.034;2023-07-22T11:36:36;22.20;28.20
6654;DHT22;3363;50.942;7.034;2023-07-22T11:39:03;22.20;28.20
6654;DHT22;3363;50.942;7.034;2023-07-22T11:41:30;22.30;28.40
6654;DHT22;3363;50.942;7.034;2023-07-22T11:43:57;22.20;28.70
6654;DHT22;3363;50.942;7.034;2023-07-22T11:46:24;22.30;28.60
6654;DHT22;3363;50.942;7.034;2023-07-22T11:48:51;22.40;29.20
6654;DHT22;3363;50.942;7.034;2023-07-22T11:51:19;22.20;29.80
6654;DHT22;3363;50.942;7.034;2023-07-22T11:53:47;22.30;29.00
6654;DHT22;3363;50.942;7.034;2023-07-22T11:56:17;22.30;28.10
6654;DHT22;3363;50.942;7.034;2023-07-22T11:58:47;22.60;28.10
6654;DHT22;3363;50.942;7.034;2023-07-22T12:01:14;22.60;27.10
6654;DHT22;3363;50.942;7.034;2023-07-22T12:03:41;22.60;27.50
6654;DHT22;3363;50.942;7.034;2023-07-22T12:06:08;22.50;27.40
6654;DHT22;3363;50.942;7.034;2023-07-22T12:08:36;22.50;27.70
6654;DHT22;3363;50.942;7.034;2023-07-22T12:11:03;22.50;27.90
6654;DHT22;3363;50.942;7.034;2023-07-22T12:13:35;23.10;28.30
6654;DHT22;3363;50.942;7.034;2023-07-22T12:16:02;23.20;27.80
6654;DHT22;3363;50.942;7.034;2023-07-22T12:18:40;23.00;28.60
6654;DHT22;3363;50.942;7.034;2023-07-22T12:21:07;23.10;28.30
6654;DHT22;3363;50.942;7.034;2023-07-22T12:23:35;23.00;27.70
6654;DHT22;3363;50.942;7.034;2023-07-22T12:26:03;22.90;27.70
6654;DHT22;3363;50.942;7.034;2023-07-22T12:28:30;22.80;27.40
6654;DHT22;3363;50.942;7.034;2023-07-22T12:30:57;22.70;27.30
6654;DHT22;3363;50.942;7.034;2023-07-22T12:33:24;23.10;30.10
6654;DHT22;3363;50.942;7.034;2023-07-22T12:35:50;23.30;27.10
6654;DHT22;3363;50.942;7.034;2023-07-22T12:38:17;23.60;26.90
6654;DHT22;3363;50.942;7.034;2023-07-22T12:40:44;23.80;27.10
6654;DHT22;3363;50.942;7.034;2023-07-22T12:43:12;23.90;25.00
6654;DHT22;3363;50.942;7.034;2023-07-22T12:45:38;23.90;24.00
6654;DHT22;3363;50.942;7.034;2023-07-22T12:48:05;23.90;24.40
6654;DHT22;3363;50.942;7.034;2023-07-22T12:50:32;24.10;23.90
6654;DHT22;3363;50.942;7.034;2023-07-22T12:52:59;24.10;25.00
6654;DHT22;3363;50.942;7.034;2023-07-22T12:55:26;24.00;24.00
6654;DHT22;3363;50.942;7.034;2023-07-22T12:57:52;23.90;23.90
6654;DHT22;3363;50.942;7.034;2023-07-22T13:00:21;24.10;24.30
6654;DHT22;3363;50.942;7.034;2023-07-22T13:02:47;24.20;25.00
6654;DHT22;3363;50.942;7.034;2023-07-22T13:05:14;24.30;24.30
6654;DHT22;3363;50.942;7.034;2023-07-22T13:07:43;24.10;24.10
6654;DHT22;3363;50.942;7.034;2023-07-22T13:10:10;24.10;23.00
6654;DHT22;3363;50.942;7.034;2023-07-22T13:12:40;24.10;23.00
6654;DHT22;3363;50.942;7.034;2023-07-22T13:15:07;24.20;22.50
6654;DHT22;3363;50.942;7.034;2023-07-22T13:17:35;24.30;22.80
6654;DHT22;3363;50.942;7.034;2023-07-22T13:20:02;24.20;22.40
6654;DHT22;3363;50.942;7.034;2023-07-22T13:22:32;24.30;22.60
6654;DHT22;3363;50.942;7.034;2023-07-22T13:24:58;24.40;24.70
6654;DHT22;3363;50.942;7.034;2023-07-22T13:27:25;24.30;23.30
6654;DHT22;3363;50.942;7.034;2023-07-22T13:29:52;24.20;22.70
6654;DHT22;3363;50.942;7.034;2023-07-22T13:32:18;24.10;23.60
6654;DHT22;3363;50.942;7.034;2023-07-22T13:34:46;24.20;23.70
6654;DHT22;3363;50.942;7.034;2023-07-22T13:37:13;24.00;24.30
6654;DHT22;3363;50.942;7.034;2023-07-22T13:39:40;24.20;25.80
6654;DHT22;3363;50.942;7.034;2023-07-22T13:42:07;24.70;24.50
6654;DHT22;3363;50.942;7.034;2023-07-22T13:44:33;24.70;22.90
6654;DHT22;3363;50.942;7.034;2023-07-22T13:47:00;24.30;22.60
6654;DHT22;3363;50.942;7.034;2023-07-22T13:49:27;24.30;22.50
6654;DHT22;3363;50.942;7.034;2023-07-22T13:51:55;24.30;22.50
6654;DHT22;3363;50.942;7.034;2023-07-22T13:54:21;24.30;24.20
6654;DHT22;3363;50.942;7.034;2023-07-22T13:56:48;24.60;23.00
6654;DHT22;3363;50.942;7.034;2023-07-22T13:59:15;24.50;24.20
6654;DHT22;3363;50.942;7.034;2023-07-22T14:01:42;24.40;23.90
6654;DHT22;3363;50.942;7.034;2023-07-22T14:04:08;24.60;23.50
6654;DHT22;3363;50.942;7.034;2023-07-22T14:06:35;24.60;22.30
6654;DHT22;3363;50.942;7.034;2023-07-22T14:09:03;24.30;24.10
6654;DHT22;3363;50.942;7.034;2023-07-22T14:11:30;24.20;24.10
6654;DHT22;3363;50.942;7.034;2023-07-22T14:13:57;24.50;23.30
6654;DHT22;3363;50.942;7.034;2023-07-22T14:16:23;24.50;22.30
6654;DHT22;3363;50.942;7.034;2023-07-22T14:18:50;24.80;22.80
6654;DHT22;3363;50.942;7.034;2023-07-22T14:21:18;24.80;22.30
6654;DHT22;3363;50.942;7.034;2023-07-22T14:23:45;25.00;23.00
6654;DHT22;3363;50.942;7.034;2023-07-22T14:26:13;25.20;22.60
6654;DHT22;3363;50.942;7.034;2023-07-22T14:28:39;25.30;21.40
6654;DHT22;3363;50.942;7.034;2023-07-22T14:31:06;24.90;22.70
6654;DHT22;3363;50.942;7.034;2023-07-22T14:33:33;24.70;23.30
6654;DHT22;3363;50.942;7.034;2023-07-22T14:36:00;24.60;23.70
6654;DHT22;3363;50.942;7.034;2023-07-22T14:38:27;24.70;22.80
6654;DHT22;3363;50.942;7.034;2023-07-22T14:40:54;24.70;22.80
6654;DHT22;3363;50.942;7.034;2023-07-22T14:43:22;24.90;23.10
6654;DHT22;3363;50.942;7.034;2023-07-22T14:45:49;24.70;22.80
6654;DHT22;3363;50.942;7.034;2023-07-22T14:48:15;24.40;24.40
6654;DHT22;3363;50.942;7.034;2023-07-22T14:50:42;24.30;23.90
6654;DHT22;3363;50.942;7.034;2023-07-22T14:53:09;24.60;23.80
6654;DHT22;3363;50.942;7.034;2023-07-22T14:55:35;24.90;23.70
6654;DHT22;3363;50.942;7.034;2023-07-22T14:58:02;24.80;24.90
6654;DHT22;3363;50.942;7.034;2023-07-22T15:00:30;25.00;23.90
6654;DHT22;3363;50.942;7.034;2023-07-22T15:02:57;25.00;23.60
6654;DHT22;3363;50.942;7.034;2023-07-22T15:05:23;24.80;23.10
6654;DHT22;3363;50.942;7.034;2023-07-22T15:07:51;24.70;22.90
6654;DHT22;3363;50.942;7.034;2023-07-22T15:10:18;24.60;23.20
6654;DHT22;3363;50.942;7.034;2023-07-22T15:12:45;24.70;22.60
6654;DHT22;3363;50.942;7.034;2023-07-22T15:15:11;24.80;22.90
6654;DHT22;3363;50.942;7.034;2023-07-22T15:17:40;25.00;22.00
6654;DHT22;3363;50.942;7.034;2023-07-22T15:20:07;24.90;22.60
6654;DHT22;3363;50.942;7.034;2023-07-22T15:22:34;25.00;21.90
6654;DHT22;3363;50.942;7.034;2023-07-22T15:25:00;25.00;22.60
6654;DHT22;3363;50.942;7.034;2023-07-22T15:27:27;25.10;21.90
6654;DHT22;3363;50.942;7.034;2023-07-22T15:29:53;24.90;23.00
6654;DHT22;3363;50.942;7.034;2023-07-22T15:32:20;24.80;22.70
6654;DHT22;3363;50.942;7.034;2023-07-22T15:34:48;24.90;24.00
6654;DHT22;3363;50.942;7.034;2023-07-22T15:37:15;24.80;24.00
6654;DHT22;3363;50.942;7.034;2023-07-22T15:39:41;24.80;23.10
6654;DHT22;3363;50.942;7.034;2023-07-22T15:42:08;24.60;22.60
6654;DHT22;3363;50.942;7.034;2023-07-22T15:44:35;24.70;23.10
6654;DHT22;3363;50.942;7.034;2023-07-22T15:47:02;24.80;23.90
6654;DHT22;3363;50.942;7.034;2023-07-22T15:49:29;24.50;25.90
6654;DHT22;3363;50.942;7.034;2023-07-22T15:51:57;24.70;24.50
6654;DHT22;3363;50.942;7.034;2023-07-22T15:54:24;24.70;23.40
6654;DHT22;3363;50.942;7.034;2023-07-22T15:56:50;24.60;23.90
6654;DHT22;3363;50.942;7.034;2023-07-22T15:59:17;24.60;24.80
6654;DHT22;3363;50.942;7.034;2023-07-22T16:01:44;24.30;25.60
6654;DHT22;3363;50.942;7.034;2023-07-22T16:04:11;24.10;25.90
6654;DHT22;3363;50.942;7.034;2023-07-22T16:06:38;24.00;26.80
6654;DHT22;3363;50.942;7.034;2023-07-22T16:09:06;24.20;26.50